sensor_id;sensor_type;location;lat;lon;timestamp;P1;durP1;ratioP1;P2;durP2;ratioP2
41436;SDS011;27178;49.460;10.850;2023-10-13T00:01:05;6.93;;;6.22;;
41436;SDS011;27178;49.460;10.850;2023-10-13T00:03:34;9.68;;;6.55;;
41436;SDS011;27178;49.460;10.850;2023-10-13T00:06:03;8.55;;;6.45;;
41436;SDS011;27178;49.460;10.850;2023-10-13T00:08:33;7.97;;;6.45;;
41436;SDS011;27178;49.460;10.850;2023-10-13T00:11:03;6.90;;;6.30;;
41436;SDS011;27178;49.460;10.850;2023-10-13T00:13:32;10.20;;;6.65;;
41436;SDS011;27178;49.460;10.850;2023-10-13T00:16:10;8.45;;;6.28;;
41436;SDS011;27178;49.460;10.850;2023-10-13T00:18:44;9.30;;;6.38;;
41436;SDS011;27178;49.460;10.850;2023-10-13T00:21:13;12.02;;;7.25;;
41436;SDS011;27178;49.460;10.850;2023-10-13T00:23:46;8.20;;;7.00;;
41436;SDS011;27178;49.460;10.850;2023-10-13T00:26:21;9.70;;;6.25;;
41436;SDS011;27178;49.460;10.850;2023-10-13T00:28:54;10.23;;;6.78;;
41436;SDS011;27178;49.460;10.850;2023-10-13T00:31:37;11.30;;;6.72;;
41436;SDS011;27178;49.460;10.850;2023-10-13T00:34:09;7.32;;;6.57;;
41436;SDS011;27178;49.460;10.850;2023-10-13T00:36:39;9.85;;;7.00;;
41436;SDS011;27178;49.460;10.850;2023-10-13T00:39:15;8.30;;;6.45;;
41436;SDS011;27178;49.460;10.850;2023-10-13T00:41:44;7.68;;;6.53;;
41436;SDS011;27178;49.460;10.850;2023-10-13T00:44:26;13.63;;;7.05;;
41436;SDS011;27178;49.460;10.850;2023-10-13T00:47:00;7.65;;;6.60;;
41436;SDS011;27178;49.460;10.850;2023-10-13T00:49:29;9.95;;;6.50;;
41436;SDS011;27178;49.460;10.850;2023-10-13T00:51:57;11.15;;;6.90;;
41436;SDS011;27178;49.460;10.850;2023-10-13T00:54:26;9.57;;;7.05;;
41436;SDS011;27178;49.460;10.850;2023-10-13T00:56:54;8.20;;;6.70;;
41436;SDS011;27178;49.460;10.850;2023-10-13T00:59:31;9.02;;;6.35;;
41436;SDS011;27178;49.460;10.850;2023-10-13T01:02:10;6.47;;;5.88;;
41436;SDS011;27178;49.460;10.850;2023-10-13T01:04:52;8.77;;;7.03;;
41436;SDS011;27178;49.460;10.850;2023-10-13T01:07:21;12.25;;;7.40;;
41436;SDS011;27178;49.460;10.850;2023-10-13T01:09:49;9.88;;;7.30;;
41436;SDS011;27178;49.460;10.850;2023-10-13T01:12:17;7.80;;;6.20;;
41436;SDS011;27178;49.460;10.850;2023-10-13T01:14:45;8.48;;;6.43;;
41436;SDS011;27178;49.460;10.850;2023-10-13T01:17:17;6.55;;;5.95;;
41436;SDS011;27178;49.460;10.850;2023-10-13T01:19:45;9.32;;;7.25;;
41436;SDS011;27178;49.460;10.850;2023-10-13T01:22:16;9.57;;;6.32;;
41436;SDS011;27178;49.460;10.850;2023-10-13T01:24:48;8.98;;;7.00;;
41436;SDS011;27178;49.460;10.850;2023-10-13T01:27:16;10.82;;;7.72;;
41436;SDS011;27178;49.460;10.850;2023-10-13T01:29:45;11.30;;;7.43;;
41436;SDS011;27178;49.460;10.850;2023-10-13T01:32:15;9.75;;;6.55;;
41436;SDS011;27178;49.460;10.850;2023-10-13T01:34:45;11.80;;;6.85;;
41436;SDS011;27178;49.460;10.850;2023-10-13T01:37:13;7.28;;;6.03;;
41436;SDS011;27178;49.460;10.850;2023-10-13T01:39:43;10.57;;;7.28;;
41436;SDS011;27178;49.460;10.850;2023-10-13T01:42:15;7.10;;;6.45;;
41436;SDS011;27178;49.460;10.850;2023-10-13T01:44:46;10.07;;;6.93;;
41436;SDS011;27178;49.460;10.850;2023-10-13T01:47:14;9.73;;;6.28;;
41436;SDS011;27178;49.460;10.850;2023-10-13T01:49:43;8.68;;;6.55;;
41436;SDS011;27178;49.460;10.850;2023-10-13T01:52:14;9.90;;;6.95;;
41436;SDS011;27178;49.460;10.850;2023-10-13T01:54:43;10.32;;;7.30;;
41436;SDS011;27178;49.460;10.850;2023-10-13T01:57:11;11.80;;;6.95;;
41436;SDS011;27178;49.460;10.850;2023-10-13T01:59:42;8.63;;;6.07;;
41436;SDS011;27178;49.460;10.850;2023-10-13T02:02:10;9.60;;;6.15;;
41436;SDS011;27178;49.460;10.850;2023-10-13T02:04:40;8.48;;;6.57;;
41436;SDS011;27178;49.460;10.850;2023-10-13T02:07:15;8.88;;;6.43;;
41436;SDS011;27178;49.460;10.850;2023-10-13T02:09:44;9.75;;;6.40;;
41436;SDS011;27178;49.460;10.850;2023-10-13T02:12:12;8.13;;;6.28;;
41436;SDS011;27178;49.460;10.850;2023-10-13T02:14:43;7.65;;;6.38;;
41436;SDS011;27178;49.460;10.850;2023-10-13T02:17:11;11.38;;;5.65;;
41436;SDS011;27178;49.460;10.850;2023-10-13T02:19:40;10.50;;;6.43;;
41436;SDS011;27178;49.460;10.850;2023-10-13T02:22:12;8.50;;;5.35;;
41436;SDS011;27178;49.460;10.850;2023-10-13T02:24:53;7.25;;;5.60;;
41436;SDS011;27178;49.460;10.850;2023-10-13T02:27:24;8.98;;;5.75;;
41436;SDS011;27178;49.460;10.850;2023-10-13T02:29:54;10.18;;;6.13;;
41436;SDS011;27178;49.460;10.850;2023-10-13T02:32:25;8.27;;;5.78;;
41436;SDS011;27178;49.460;10.850;2023-10-13T02:34:57;13.75;;;6.45;;
41436;SDS011;27178;49.460;10.850;2023-10-13T02:37:32;9.10;;;5.82;;
41436;SDS011;27178;49.460;10.850;2023-10-13T02:40:02;7.20;;;5.68;;
41436;SDS011;27178;49.460;10.850;2023-10-13T02:42:31;6.15;;;5.50;;
41436;SDS011;27178;49.460;10.850;2023-10-13T02:45:01;6.82;;;6.13;;
41436;SDS011;27178;49.460;10.850;2023-10-13T02:47:30;6.53;;;5.22;;
41436;SDS011;27178;49.460;10.850;2023-10-13T02:49:59;8.18;;;6.20;;
41436;SDS011;27178;49.460;10.850;2023-10-13T02:52:27;7.93;;;5.55;;
41436;SDS011;27178;49.460;10.850;2023-10-13T02:55:04;10.45;;;7.05;;
41436;SDS011;27178;49.460;10.850;2023-10-13T02:57:36;8.75;;;5.85;;
41436;SDS011;27178;49.460;10.850;2023-10-13T03:00:07;7.75;;;6.20;;
41436;SDS011;27178;49.460;10.850;2023-10-13T03:02:42;7.13;;;5.30;;
41436;SDS011;27178;49.460;10.850;2023-10-13T03:05:12;6.70;;;6.00;;
41436;SDS011;27178;49.460;10.850;2023-10-13T03:07:46;7.63;;;5.47;;
41436;SDS011;27178;49.460;10.850;2023-10-13T03:10:16;8.90;;;6.10;;
41436;SDS011;27178;49.460;10.850;2023-10-13T03:12:48;6.88;;;5.88;;
41436;SDS011;27178;49.460;10.850;2023-10-13T03:15:16;8.00;;;5.90;;
41436;SDS011;27178;49.460;10.850;2023-10-13T03:17:46;9.25;;;5.78;;
41436;SDS011;27178;49.460;10.850;2023-10-13T03:20:16;9.15;;;5.95;;
41436;SDS011;27178;49.460;10.850;2023-10-13T03:22:52;6.65;;;5.72;;
41436;SDS011;27178;49.460;10.850;2023-10-13T03:25:20;7.93;;;6.18;;
41436;SDS011;27178;49.460;10.850;2023-10-13T03:27:56;9.60;;;5.90;;
41436;SDS011;27178;49.460;10.850;2023-10-13T03:30:33;8.55;;;6.43;;
41436;SDS011;27178;49.460;10.850;2023-10-13T03:33:05;7.70;;;6.22;;
41436;SDS011;27178;49.460;10.850;2023-10-13T03:35:36;6.93;;;5.72;;
41436;SDS011;27178;49.460;10.850;2023-10-13T03:38:07;11.13;;;6.45;;
41436;SDS011;27178;49.460;10.850;2023-10-13T03:40:43;6.55;;;5.25;;
41436;SDS011;27178;49.460;10.850;2023-10-13T03:43:34;7.57;;;6.03;;
41436;SDS011;27178;49.460;10.850;2023-10-13T03:46:13;8.00;;;6.88;;
41436;SDS011;27178;49.460;10.850;2023-10-13T03:48:42;10.43;;;6.82;;
41436;SDS011;27178;49.460;10.850;2023-10-13T03:51:21;6.70;;;6.10;;
41436;SDS011;27178;49.460;10.850;2023-10-13T03:53:58;7.32;;;5.90;;
41436;SDS011;27178;49.460;10.850;2023-10-13T03:56:34;9.30;;;6.50;;
41436;SDS011;27178;49.460;10.850;2023-10-13T03:59:11;6.97;;;5.97;;
41436;SDS011;27178;49.460;10.850;2023-10-13T04:01:48;7.70;;;5.85;;
41436;SDS011;27178;49.460;10.850;2023-10-13T04:04:25;12.43;;;6.43;;
41436;SDS011;27178;49.460;10.850;2023-10-13T04:07:10;7.70;;;5.90;;
41436;SDS011;27178;49.460;10.850;2023-10-13T04:10:06;6.88;;;5.65;;
41436;SDS011;27178;49.460;10.850;2023-10-13T04:12:53;9.00;;;6.57;;
41436;SDS011;27178;49.460;10.850;2023-10-13T04:15:39;8.50;;;6.13;;
41436;SDS011;27178;49.460;10.850;2023-10-13T04:18:30;9.27;;;6.05;;
41436;SDS011;27178;49.460;10.850;2023-10-13T04:21:13;7.95;;;5.93;;
41436;SDS011;27178;49.460;10.850;2023-10-13T04:24:03;9.50;;;6.55;;
41436;SDS011;27178;49.460;10.850;2023-10-13T04:27:04;7.18;;;6.38;;
41436;SDS011;27178;49.460;10.850;2023-10-13T04:29:50;7.63;;;5.88;;
41436;SDS011;27178;49.460;10.850;2023-10-13T04:32:29;10.50;;;6.03;;
41436;SDS011;27178;49.460;10.850;2023-10-13T04:35:01;7.75;;;6.68;;
41436;SDS011;27178;49.460;10.850;2023-10-13T04:37:37;12.45;;;6.57;;
41436;SDS011;27178;49.460;10.850;2023-10-13T04:40:18;6.95;;;6.28;;
41436;SDS011;27178;49.460;10.850;2023-10-13T04:42:51;15.23;;;6.47;;
41436;SDS011;27178;49.460;10.850;2023-10-13T04:45:24;8.60;;;6.82;;
41436;SDS011;27178;49.460;10.850;2023-10-13T04:48:05;7.65;;;6.45;;
41436;SDS011;27178;49.460;10.850;2023-10-13T04:51:02;9.10;;;6.13;;
41436;SDS011;27178;49.460;10.850;2023-10-13T04:54:10;11.57;;;6.75;;
41436;SDS011;27178;49.460;10.850;2023-10-13T04:56:52;10.73;;;6.45;;
41436;SDS011;27178;49.460;10.850;2023-10-13T04:59:41;11.30;;;6.07;;
41436;SDS011;27178;49.460;10.850;2023-10-13T05:02:39;7.60;;;6.80;;
41436;SDS011;27178;49.460;10.850;2023-10-13T05:05:50;6.93;;;6.20;;
41436;SDS011;27178;49.460;10.850;2023-10-13T05:08:37;10.82;;;6.38;;
41436;SDS011;27178;49.460;10.850;2023-10-13T05:11:22;6.72;;;6.03;;
41436;SDS011;27178;49.460;10.850;2023-10-13T05:14:08;6.95;;;6.25;;
41436;SDS011;27178;49.460;10.850;2023-10-13T05:16:54;9.18;;;5.70;;
41436;SDS011;27178;49.460;10.850;2023-10-13T05:19:39;6.78;;;6.07;;
41436;SDS011;27178;49.460;10.850;2023-10-13T05:22:25;8.20;;;6.28;;
41436;SDS011;27178;49.460;10.850;2023-10-13T05:25:12;6.38;;;5.47;;
41436;SDS011;27178;49.460;10.850;2023-10-13T05:27:58;5.75;;;5.25;;
41436;SDS011;27178;49.460;10.850;2023-10-13T05:31:00;7.25;;;5.60;;
41436;SDS011;27178;49.460;10.850;2023-10-13T05:33:46;5.72;;;5.22;;
41436;SDS011;27178;49.460;10.850;2023-10-13T05:36:33;5.93;;;5.32;;
41436;SDS011;27178;49.460;10.850;2023-10-13T05:39:18;8.20;;;6.35;;
41436;SDS011;27178;49.460;10.850;2023-10-13T05:42:06;8.88;;;5.35;;
41436;SDS011;27178;49.460;10.850;2023-10-13T05:44:52;6.78;;;5.35;;
41436;SDS011;27178;49.460;10.850;2023-10-13T05:47:50;8.38;;;6.03;;
41436;SDS011;27178;49.460;10.850;2023-10-13T05:50:29;8.63;;;5.72;;
41436;SDS011;27178;49.460;10.850;2023-10-13T05:53:12;7.22;;;5.60;;
41436;SDS011;27178;49.460;10.850;2023-10-13T05:55:59;6.00;;;5.05;;
41436;SDS011;27178;49.460;10.850;2023-10-13T05:58:47;6.70;;;5.13;;
41436;SDS011;27178;49.460;10.850;2023-10-13T06:01:33;6.88;;;5.05;;
41436;SDS011;27178;49.460;10.850;2023-10-13T06:04:19;6.03;;;5.43;;
41436;SDS011;27178;49.460;10.850;2023-10-13T06:07:05;11.00;;;5.60;;
41436;SDS011;27178;49.460;10.850;2023-10-13T06:09:51;6.43;;;5.45;;
41436;SDS011;27178;49.460;10.850;2023-10-13T06:12:37;5.68;;;4.90;;
41436;SDS011;27178;49.460;10.850;2023-10-13T06:15:24;5.65;;;5.15;;
41436;SDS011;27178;49.460;10.850;2023-10-13T06:18:10;9.55;;;5.40;;
41436;SDS011;27178;49.460;10.850;2023-10-13T06:20:56;8.10;;;4.93;;
41436;SDS011;27178;49.460;10.850;2023-10-13T06:23:42;7.03;;;4.72;;
41436;SDS011;27178;49.460;10.850;2023-10-13T06:26:28;6.53;;;4.65;;
41436;SDS011;27178;49.460;10.850;2023-10-13T06:29:13;5.10;;;4.60;;
41436;SDS011;27178;49.460;10.850;2023-10-13T06:31:48;5.00;;;4.30;;
41436;SDS011;27178;49.460;10.850;2023-10-13T06:34:17;5.85;;;4.53;;
41436;SDS011;27178;49.460;10.850;2023-10-13T06:36:47;7.97;;;5.07;;
41436;SDS011;27178;49.460;10.850;2023-10-13T06:39:16;6.93;;;4.82;;
41436;SDS011;27178;49.460;10.850;2023-10-13T06:42:02;5.60;;;4.50;;
41436;SDS011;27178;49.460;10.850;2023-10-13T06:44:30;4.80;;;4.35;;
41436;SDS011;27178;49.460;10.850;2023-10-13T06:47:00;7.40;;;4.82;;
41436;SDS011;27178;49.460;10.850;2023-10-13T06:49:30;5.20;;;4.70;;
41436;SDS011;27178;49.460;10.850;2023-10-13T06:52:06;6.72;;;5.28;;
41436;SDS011;27178;49.460;10.850;2023-10-13T06:54:34;5.75;;;4.80;;
41436;SDS011;27178;49.460;10.850;2023-10-13T06:57:03;5.57;;;4.82;;
41436;SDS011;27178;49.460;10.850;2023-10-13T06:59:33;8.20;;;5.13;;
41436;SDS011;27178;49.460;10.850;2023-10-13T07:02:04;7.03;;;6.20;;
41436;SDS011;27178;49.460;10.850;2023-10-13T07:04:53;7.53;;;5.97;;
41436;SDS011;27178;49.460;10.850;2023-10-13T07:07:34;6.45;;;5.63;;
41436;SDS011;27178;49.460;10.850;2023-10-13T07:10:07;6.90;;;4.82;;
41436;SDS011;27178;49.460;10.850;2023-10-13T07:12:36;8.02;;;4.82;;
41436;SDS011;27178;49.460;10.850;2023-10-13T07:15:09;5.15;;;4.63;;
41436;SDS011;27178;49.460;10.850;2023-10-13T07:17:47;4.97;;;4.43;;
41436;SDS011;27178;49.460;10.850;2023-10-13T07:20:21;8.32;;;4.47;;
41436;SDS011;27178;49.460;10.850;2023-10-13T07:23:00;5.80;;;4.13;;
41436;SDS011;27178;49.460;10.850;2023-10-13T07:25:31;6.95;;;4.28;;
41436;SDS011;27178;49.460;10.850;2023-10-13T07:28:04;6.57;;;4.00;;
41436;SDS011;27178;49.460;10.850;2023-10-13T07:30:35;6.72;;;4.13;;
41436;SDS011;27178;49.460;10.850;2023-10-13T07:33:10;5.32;;;3.88;;
41436;SDS011;27178;49.460;10.850;2023-10-13T07:35:40;5.07;;;3.50;;
41436;SDS011;27178;49.460;10.850;2023-10-13T07:38:08;5.28;;;3.95;;
41436;SDS011;27178;49.460;10.850;2023-10-13T07:40:37;4.28;;;3.88;;
41436;SDS011;27178;49.460;10.850;2023-10-13T07:43:08;6.50;;;4.35;;
41436;SDS011;27178;49.460;10.850;2023-10-13T07:45:37;6.07;;;4.47;;
41436;SDS011;27178;49.460;10.850;2023-10-13T07:48:08;6.13;;;3.83;;
41436;SDS011;27178;49.460;10.850;2023-10-13T07:50:46;7.30;;;3.75;;
41436;SDS011;27178;49.460;10.850;2023-10-13T07:53:15;7.32;;;4.40;;
41436;SDS011;27178;49.460;10.850;2023-10-13T07:55:50;5.95;;;3.70;;
41436;SDS011;27178;49.460;10.850;2023-10-13T07:58:23;7.72;;;4.28;;
41436;SDS011;27178;49.460;10.850;2023-10-13T08:00:52;6.97;;;3.85;;
41436;SDS011;27178;49.460;10.850;2023-10-13T08:03:36;26.38;;;4.25;;
41436;SDS011;27178;49.460;10.850;2023-10-13T08:06:14;7.47;;;4.45;;
41436;SDS011;27178;49.460;10.850;2023-10-13T08:08:52;7.50;;;4.00;;
41436;SDS011;27178;49.460;10.850;2023-10-13T08:11:34;4.15;;;3.75;;
41436;SDS011;27178;49.460;10.850;2023-10-13T08:14:04;6.68;;;3.60;;
41436;SDS011;27178;49.460;10.850;2023-10-13T08:17:03;4.05;;;3.50;;
41436;SDS011;27178;49.460;10.850;2023-10-13T08:19:36;12.20;;;3.78;;
41436;SDS011;27178;49.460;10.850;2023-10-13T08:22:12;4.88;;;3.65;;
41436;SDS011;27178;49.460;10.850;2023-10-13T08:24:58;5.68;;;4.65;;
41436;SDS011;27178;49.460;10.850;2023-10-13T08:27:40;4.63;;;3.67;;
41436;SDS011;27178;49.460;10.850;2023-10-13T08:30:32;7.90;;;4.18;;
41436;SDS011;27178;49.460;10.850;2023-10-13T08:33:08;5.78;;;3.75;;
41436;SDS011;27178;49.460;10.850;2023-10-13T08:35:46;8.15;;;3.60;;
41436;SDS011;27178;49.460;10.850;2023-10-13T08:38:44;4.22;;;3.40;;
41436;SDS011;27178;49.460;10.850;2023-10-13T08:41:19;3.90;;;3.20;;
41436;SDS011;27178;49.460;10.850;2023-10-13T08:43:57;5.00;;;3.60;;
41436;SDS011;27178;49.460;10.850;2023-10-13T08:46:31;4.15;;;3.60;;
41436;SDS011;27178;49.460;10.850;2023-10-13T08:49:19;6.68;;;3.85;;
41436;SDS011;27178;49.460;10.850;2023-10-13T08:51:51;5.68;;;3.95;;
41436;SDS011;27178;49.460;10.850;2023-10-13T08:54:33;4.97;;;3.33;;
41436;SDS011;27178;49.460;10.850;2023-10-13T08:57:06;4.65;;;3.97;;
41436;SDS011;27178;49.460;10.850;2023-10-13T08:59:47;4.32;;;3.72;;
41436;SDS011;27178;49.460;10.850;2023-10-13T09:02:22;6.00;;;3.13;;
41436;SDS011;27178;49.460;10.850;2023-10-13T09:05:05;5.53;;;3.22;;
41436;SDS011;27178;49.460;10.850;2023-10-13T09:07:55;4.15;;;3.50;;
41436;SDS011;27178;49.460;10.850;2023-10-13T09:10:35;6.35;;;3.67;;
41436;SDS011;27178;49.460;10.850;2023-10-13T09:13:15;4.60;;;3.50;;
41436;SDS011;27178;49.460;10.850;2023-10-13T09:15:47;5.28;;;3.08;;
41436;SDS011;27178;49.460;10.850;2023-10-13T09:18:28;5.80;;;3.88;;
41436;SDS011;27178;49.460;10.850;2023-10-13T09:21:14;6.22;;;3.70;;
41436;SDS011;27178;49.460;10.850;2023-10-13T09:24:15;3.83;;;3.38;;
41436;SDS011;27178;49.460;10.850;2023-10-13T09:26:44;9.68;;;4.03;;
41436;SDS011;27178;49.460;10.850;2023-10-13T09:29:15;4.80;;;3.30;;
41436;SDS011;27178;49.460;10.850;2023-10-13T09:31:57;4.38;;;3.60;;
41436;SDS011;27178;49.460;10.850;2023-10-13T09:34:27;5.65;;;3.58;;
41436;SDS011;27178;49.460;10.850;2023-10-13T09:36:58;5.32;;;3.50;;
41436;SDS011;27178;49.460;10.850;2023-10-13T09:39:31;4.80;;;3.47;;
41436;SDS011;27178;49.460;10.850;2023-10-13T09:42:11;4.28;;;3.85;;
41436;SDS011;27178;49.460;10.850;2023-10-13T09:44:43;6.45;;;3.90;;
41436;SDS011;27178;49.460;10.850;2023-10-13T09:47:21;6.20;;;3.17;;
41436;SDS011;27178;49.460;10.850;2023-10-13T09:50:01;6.40;;;3.60;;
41436;SDS011;27178;49.460;10.850;2023-10-13T09:52:31;4.38;;;3.83;;
41436;SDS011;27178;49.460;10.850;2023-10-13T09:55:08;4.85;;;3.55;;
41436;SDS011;27178;49.460;10.850;2023-10-13T09:57:47;3.95;;;3.40;;
41436;SDS011;27178;49.460;10.850;2023-10-13T10:00:26;4.78;;;3.28;;
41436;SDS011;27178;49.460;10.850;2023-10-13T10:03:13;4.85;;;3.22;;
41436;SDS011;27178;49.460;10.850;2023-10-13T10:05:58;7.35;;;4.00;;
41436;SDS011;27178;49.460;10.850;2023-10-13T10:08:33;5.13;;;3.22;;
41436;SDS011;27178;49.460;10.850;2023-10-13T10:11:18;5.30;;;2.83;;
41436;SDS011;27178;49.460;10.850;2023-10-13T10:14:01;6.53;;;3.65;;
41436;SDS011;27178;49.460;10.850;2023-10-13T10:16:37;4.55;;;3.47;;
41436;SDS011;27178;49.460;10.850;2023-10-13T10:19:16;5.38;;;3.55;;
41436;SDS011;27178;49.460;10.850;2023-10-13T10:21:45;5.75;;;3.58;;
41436;SDS011;27178;49.460;10.850;2023-10-13T10:24:15;5.35;;;3.38;;
41436;SDS011;27178;49.460;10.850;2023-10-13T10:26:52;4.38;;;3.47;;
41436;SDS011;27178;49.460;10.850;2023-10-13T10:29:21;4.70;;;3.33;;
41436;SDS011;27178;49.460;10.850;2023-10-13T10:31:50;4.55;;;3.40;;
41436;SDS011;27178;49.460;10.850;2023-10-13T10:34:18;6.20;;;3.42;;
41436;SDS011;27178;49.460;10.850;2023-10-13T10:36:53;9.18;;;3.60;;
41436;SDS011;27178;49.460;10.850;2023-10-13T10:39:32;5.32;;;3.25;;
41436;SDS011;27178;49.460;10.850;2023-10-13T10:42:13;5.50;;;3.70;;
41436;SDS011;27178;49.460;10.850;2023-10-13T10:44:50;7.53;;;3.38;;
41436;SDS011;27178;49.460;10.850;2023-10-13T10:47:24;7.10;;;3.60;;
41436;SDS011;27178;49.460;10.850;2023-10-13T10:50:00;7.25;;;3.35;;
41436;SDS011;27178;49.460;10.850;2023-10-13T10:52:34;5.10;;;3.05;;
41436;SDS011;27178;49.460;10.850;2023-10-13T10:55:06;5.20;;;3.28;;
41436;SDS011;27178;49.460;10.850;2023-10-13T10:57:38;6.93;;;3.20;;
41436;SDS011;27178;49.460;10.850;2023-10-13T11:00:17;4.50;;;3.17;;
41436;SDS011;27178;49.460;10.850;2023-10-13T11:02:53;6.68;;;3.70;;
41436;SDS011;27178;49.460;10.850;2023-10-13T11:05:23;4.78;;;3.15;;
41436;SDS011;27178;49.460;10.850;2023-10-13T11:07:59;5.22;;;3.30;;
41436;SDS011;27178;49.460;10.850;2023-10-13T11:10:33;3.72;;;3.00;;
41436;SDS011;27178;49.460;10.850;2023-10-13T11:13:06;7.15;;;3.50;;
41436;SDS011;27178;49.460;10.850;2023-10-13T11:15:41;3.95;;;3.40;;
41436;SDS011;27178;49.460;10.850;2023-10-13T11:18:11;5.63;;;3.60;;
41436;SDS011;27178;49.460;10.850;2023-10-13T11:20:47;6.93;;;3.50;;
41436;SDS011;27178;49.460;10.850;2023-10-13T11:23:20;5.38;;;3.45;;
41436;SDS011;27178;49.460;10.850;2023-10-13T11:25:58;6.07;;;3.25;;
41436;SDS011;27178;49.460;10.850;2023-10-13T11:28:28;7.55;;;3.22;;
41436;SDS011;27178;49.460;10.850;2023-10-13T11:30:59;6.22;;;3.55;;
41436;SDS011;27178;49.460;10.850;2023-10-13T11:33:42;3.45;;;3.13;;
41436;SDS011;27178;49.460;10.850;2023-10-13T11:36:16;4.15;;;2.85;;
41436;SDS011;27178;49.460;10.850;2023-10-13T11:38:48;5.10;;;2.97;;
41436;SDS011;27178;49.460;10.850;2023-10-13T11:41:24;5.53;;;3.30;;
41436;SDS011;27178;49.460;10.850;2023-10-13T11:44:01;6.80;;;3.50;;
41436;SDS011;27178;49.460;10.850;2023-10-13T11:46:40;5.30;;;3.25;;
41436;SDS011;27178;49.460;10.850;2023-10-13T11:49:24;4.40;;;2.90;;
41436;SDS011;27178;49.460;10.850;2023-10-13T11:52:04;5.55;;;2.65;;
41436;SDS011;27178;49.460;10.850;2023-10-13T11:54:46;3.45;;;2.85;;
41436;SDS011;27178;49.460;10.850;2023-10-13T11:57:15;5.80;;;3.10;;
41436;SDS011;27178;49.460;10.850;2023-10-13T11:59:47;7.70;;;3.42;;
41436;SDS011;27178;49.460;10.850;2023-10-13T12:02:42;4.90;;;2.85;;
41436;SDS011;27178;49.460;10.850;2023-10-13T12:05:31;5.95;;;3.47;;
41436;SDS011;27178;49.460;10.850;2023-10-13T12:08:16;4.55;;;3.08;;
41436;SDS011;27178;49.460;10.850;2023-10-13T12:10:59;4.72;;;2.53;;
41436;SDS011;27178;49.460;10.850;2023-10-13T12:13:48;4.40;;;3.08;;
41436;SDS011;27178;49.460;10.850;2023-10-13T12:16:17;4.82;;;2.88;;
41436;SDS011;27178;49.460;10.850;2023-10-13T12:18:46;5.15;;;3.15;;
41436;SDS011;27178;49.460;10.850;2023-10-13T12:21:19;5.20;;;2.88;;
41436;SDS011;27178;49.460;10.850;2023-10-13T12:23:48;6.55;;;3.33;;
41436;SDS011;27178;49.460;10.850;2023-10-13T12:26:17;8.70;;;3.47;;
41436;SDS011;27178;49.460;10.850;2023-10-13T12:28:46;4.22;;;3.08;;
41436;SDS011;27178;49.460;10.850;2023-10-13T12:31:20;4.20;;;2.60;;
41436;SDS011;27178;49.460;10.850;2023-10-13T12:33:53;5.28;;;2.90;;
41436;SDS011;27178;49.460;10.850;2023-10-13T12:36:24;5.55;;;3.35;;
41436;SDS011;27178;49.460;10.850;2023-10-13T12:39:07;3.78;;;3.03;;
41436;SDS011;27178;49.460;10.850;2023-10-13T12:41:53;6.95;;;3.30;;
41436;SDS011;27178;49.460;10.850;2023-10-13T12:44:39;6.65;;;2.70;;
41436;SDS011;27178;49.460;10.850;2023-10-13T12:47:26;4.95;;;2.90;;
41436;SDS011;27178;49.460;10.850;2023-10-13T12:50:12;3.05;;;2.75;;
41436;SDS011;27178;49.460;10.850;2023-10-13T12:53:00;6.60;;;3.17;;
41436;SDS011;27178;49.460;10.850;2023-10-13T12:55:29;3.50;;;2.80;;
41436;SDS011;27178;49.460;10.850;2023-10-13T12:57:57;5.43;;;3.03;;
41436;SDS011;27178;49.460;10.850;2023-10-13T13:00:24;3.95;;;3.13;;
41436;SDS011;27178;49.460;10.850;2023-10-13T13:03:01;4.57;;;2.80;;
41436;SDS011;27178;49.460;10.850;2023-10-13T13:05:39;5.00;;;3.10;;
41436;SDS011;27178;49.460;10.850;2023-10-13T13:08:11;3.80;;;2.67;;
41436;SDS011;27178;49.460;10.850;2023-10-13T13:10:49;3.05;;;2.63;;
41436;SDS011;27178;49.460;10.850;2023-10-13T13:13:18;3.40;;;2.90;;
41436;SDS011;27178;49.460;10.850;2023-10-13T13:15:51;9.52;;;2.78;;
41436;SDS011;27178;49.460;10.850;2023-10-13T13:18:21;5.97;;;2.97;;
41436;SDS011;27178;49.460;10.850;2023-10-13T13:20:50;7.15;;;3.15;;
41436;SDS011;27178;49.460;10.850;2023-10-13T13:23:22;3.83;;;2.33;;
41436;SDS011;27178;49.460;10.850;2023-10-13T13:25:53;4.00;;;2.90;;
41436;SDS011;27178;49.460;10.850;2023-10-13T13:28:24;5.63;;;2.80;;
41436;SDS011;27178;49.460;10.850;2023-10-13T13:30:56;3.90;;;2.78;;
41436;SDS011;27178;49.460;10.850;2023-10-13T13:33:25;4.50;;;2.80;;
41436;SDS011;27178;49.460;10.850;2023-10-13T13:36:00;3.40;;;2.88;;
41436;SDS011;27178;49.460;10.850;2023-10-13T13:38:30;5.95;;;2.80;;
41436;SDS011;27178;49.460;10.850;2023-10-13T13:41:00;4.28;;;2.90;;
41436;SDS011;27178;49.460;10.850;2023-10-13T13:43:36;3.80;;;2.60;;
41436;SDS011;27178;49.460;10.850;2023-10-13T13:46:18;4.13;;;2.78;;
41436;SDS011;27178;49.460;10.850;2023-10-13T13:48:53;3.60;;;2.40;;
41436;SDS011;27178;49.460;10.850;2023-10-13T13:51:26;6.82;;;2.75;;
41436;SDS011;27178;49.460;10.850;2023-10-13T13:53:55;3.22;;;2.72;;
41436;SDS011;27178;49.460;10.850;2023-10-13T13:56:24;2.70;;;2.50;;
41436;SDS011;27178;49.460;10.850;2023-10-13T13:58:55;5.55;;;2.53;;
41436;SDS011;27178;49.460;10.850;2023-10-13T14:01:23;6.05;;;2.50;;
41436;SDS011;27178;49.460;10.850;2023-10-13T14:03:54;5.10;;;2.60;;
41436;SDS011;27178;49.460;10.850;2023-10-13T14:06:29;2.97;;;2.60;;
41436;SDS011;27178;49.460;10.850;2023-10-13T14:08:59;3.10;;;2.40;;
41436;SDS011;27178;49.460;10.850;2023-10-13T14:11:32;3.17;;;2.22;;
41436;SDS011;27178;49.460;10.850;2023-10-13T14:14:18;5.50;;;2.80;;
41436;SDS011;27178;49.460;10.850;2023-10-13T14:17:00;4.10;;;2.70;;
41436;SDS011;27178;49.460;10.850;2023-10-13T14:19:35;3.85;;;2.63;;
41436;SDS011;27178;49.460;10.850;2023-10-13T14:22:07;2.92;;;2.60;;
41436;SDS011;27178;49.460;10.850;2023-10-13T14:24:39;8.77;;;2.80;;
41436;SDS011;27178;49.460;10.850;2023-10-13T14:27:18;5.95;;;2.60;;
41436;SDS011;27178;49.460;10.850;2023-10-13T14:29:47;6.90;;;2.70;;
41436;SDS011;27178;49.460;10.850;2023-10-13T14:32:20;4.57;;;2.70;;
41436;SDS011;27178;49.460;10.850;2023-10-13T14:34:53;3.65;;;2.55;;
41436;SDS011;27178;49.460;10.850;2023-10-13T14:37:23;6.30;;;3.05;;
41436;SDS011;27178;49.460;10.850;2023-10-13T14:39:56;3.60;;;2.50;;
41436;SDS011;27178;49.460;10.850;2023-10-13T14:42:27;6.70;;;2.45;;
41436;SDS011;27178;49.460;10.850;2023-10-13T14:45:03;4.53;;;2.63;;
41436;SDS011;27178;49.460;10.850;2023-10-13T14:47:39;4.88;;;2.97;;
41436;SDS011;27178;49.460;10.850;2023-10-13T14:50:09;7.60;;;2.55;;
41436;SDS011;27178;49.460;10.850;2023-10-13T14:52:46;4.82;;;2.80;;
41436;SDS011;27178;49.460;10.850;2023-10-13T14:55:15;3.67;;;2.33;;
41436;SDS011;27178;49.460;10.850;2023-10-13T14:57:48;4.57;;;2.53;;
41436;SDS011;27178;49.460;10.850;2023-10-13T15:00:18;5.20;;;2.40;;
41436;SDS011;27178;49.460;10.850;2023-10-13T15:02:52;5.70;;;2.67;;
41436;SDS011;27178;49.460;10.850;2023-10-13T15:05:23;8.43;;;2.72;;
41436;SDS011;27178;49.460;10.850;2023-10-13T15:07:51;5.55;;;2.50;;
41436;SDS011;27178;49.460;10.850;2023-10-13T15:10:19;4.47;;;2.97;;
41436;SDS011;27178;49.460;10.850;2023-10-13T15:12:48;3.78;;;2.30;;
41436;SDS011;27178;49.460;10.850;2023-10-13T15:15:17;3.30;;;2.13;;
41436;SDS011;27178;49.460;10.850;2023-10-13T15:17:46;2.72;;;2.03;;
41436;SDS011;27178;49.460;10.850;2023-10-13T15:20:14;5.90;;;2.70;;
41436;SDS011;27178;49.460;10.850;2023-10-13T15:22:45;3.95;;;2.67;;
41436;SDS011;27178;49.460;10.850;2023-10-13T15:25:14;5.15;;;2.30;;